sensor_id;sensor_type;location;lat;lon;timestamp;temperature;humidity
32502;DHT22;18952;52.516;13.460;2023-04-06T00:00:59;4.60;99.90
32502;DHT22;18952;52.516;13.460;2023-04-06T00:03:26;4.60;99.90
32502;DHT22;18952;52.516;13.460;2023-04-06T00:05:53;4.50;99.90
32502;DHT22;18952;52.516;13.460;2023-04-06T00:08:20;4.60;99.90
32502;DHT22;18952;52.516;13.460;2023-04-06T00:10:47;4.50;99.90
32502;DHT22;18952;52.516;13.460;2023-04-06T00:13:14;4.50;99.90
32502;DHT22;18952;52.516;13.460;2023-04-06T00:15:44;4.60;99.90
32502;DHT22;18952;52.516;13.460;2023-04-06T00:18:12;4.60;99.90
32502;DHT22;18952;52.516;13.460;2023-04-06T00:20:40;4.60;99.90
32502;DHT22;18952;52.516;13.460;2023-04-06T00:23:07;4.60;99.90
32502;DHT22;18952;52.516;13.460;2023-04-06T00:25:34;4.60;99.90
32502;DHT22;18952;52.516;13.460;2023-04-06T00:28:01;4.60;99.90
32502;DHT22;18952;52.516;13.460;2023-04-06T00:30:28;4.60;99.90
32502;DHT22;18952;52.516;13.460;2023-04-06T00:32:55;4.50;99.90
32502;DHT22;18952;52.516;13.460;2023-04-06T00:35:22;4.50;99.90
32502;DHT22;18952;52.516;13.460;2023-04-06T00:37:48;4.50;99.90
32502;DHT22;18952;52.516;13.460;2023-04-06T00:40:15;4.50;99.90
32502;DHT22;18952;52.516;13.460;2023-04-06T00:42:43;4.60;99.90
32502;DHT22;18952;52.516;13.460;2023-04-06T00:45:11;4.50;99.90
32502;DHT22;18952;52.516;13.460;2023-04-06T00:47:38;4.50;99.90
32502;DHT22;18952;52.516;13.460;2023-04-06T00:50:06;4.50;99.90
32502;DHT22;18952;52.516;13.460;2023-04-06T00:52:34;4.50;99.90
32502;DHT22;18952;52.516;13.460;2023-04-06T00:55:03;4.50;99.90
32502;DHT22;18952;52.516;13.460;2023-04-06T00:57:31;4.40;99.90
32502;DHT22;18952;52.516;13.460;2023-04-06T00:59:59;4.50;99.90
32502;DHT22;18952;52.516;13.460;2023-04-06T01:02:26;4.50;99.90
32502;DHT22;18952;52.516;13.460;2023-04-06T01:04:54;4.40;99.90
32502;DHT22;18952;52.516;13.460;2023-04-06T01:07:21;4.50;99.90
32502;DHT22;18952;52.516;13.460;2023-04-06T01:09:49;4.40;99.90
32502;DHT22;18952;52.516;13.460;2023-04-06T01:12:18;4.40;99.90
32502;DHT22;18952;52.516;13.460;2023-04-06T01:14:46;4.30;99.90
32502;DHT22;18952;52.516;13.460;2023-04-06T01:17:13;4.40;99.90
32502;DHT22;18952;52.516;13.460;2023-04-06T01:19:41;4.30;99.90
32502;DHT22;18952;52.516;13.460;2023-04-06T01:22:08;4.30;99.90
32502;DHT22;18952;52.516;13.460;2023-04-06T01:24:35;4.30;99.90
32502;DHT22;18952;52.516;13.460;2023-04-06T01:27:02;4.30;99.90
32502;DHT22;18952;52.516;13.460;2023-04-06T01:29:29;4.30;99.90
32502;DHT22;18952;52.516;13.460;2023-04-06T01:31:56;4.30;99.90
32502;DHT22;18952;52.516;13.460;2023-04-06T01:34:22;4.40;99.90
32502;DHT22;18952;52.516;13.460;2023-04-06T01:36:49;4.30;99.90
32502;DHT22;18952;52.516;13.460;2023-04-06T01:39:16;4.30;99.90
32502;DHT22;18952;52.516;13.460;2023-04-06T01:41:43;4.30;99.90
32502;DHT22;18952;52.516;13.460;2023-04-06T01:44:11;4.30;99.90
32502;DHT22;18952;52.516;13.460;2023-04-06T01:46:38;4.30;99.90
32502;DHT22;18952;52.516;13.460;2023-04-06T01:49:05;4.30;99.90
32502;DHT22;18952;52.516;13.460;2023-04-06T01:51:32;4.30;99.90
32502;DHT22;18952;52.516;13.460;2023-04-06T01:53:59;4.20;99.90
32502;DHT22;18952;52.516;13.460;2023-04-06T01:56:26;4.20;99.90
32502;DHT22;18952;52.516;13.460;2023-04-06T01:58:52;4.20;99.90
32502;DHT22;18952;52.516;13.460;2023-04-06T02:01:20;4.20;99.90
32502;DHT22;18952;52.516;13.460;2023-04-06T02:03:47;4.20;99.90
32502;DHT22;18952;52.516;13.460;2023-04-06T02:06:14;4.20;99.90
32502;DHT22;18952;52.516;13.460;2023-04-06T02:08:41;4.20;99.90
32502;DHT22;18952;52.516;13.460;2023-04-06T02:11:09;4.20;99.90
32502;DHT22;18952;52.516;13.460;2023-04-06T02:13:37;4.20;99.90
32502;DHT22;18952;52.516;13.460;2023-04-06T02:16:05;4.10;99.90
32502;DHT22;18952;52.516;13.460;2023-04-06T02:18:33;4.10;99.90
32502;DHT22;18952;52.516;13.460;2023-04-06T02:21:01;4.10;99.90
32502;DHT22;18952;52.516;13.460;2023-04-06T02:23:30;4.10;99.90
32502;DHT22;18952;52.516;13.460;2023-04-06T02:25:58;4.10;99.90
32502;DHT22;18952;52.516;13.460;2023-04-06T02:28:25;4.10;99.90
32502;DHT22;18952;52.516;13.460;2023-04-06T02:30:54;4.00;99.90
32502;DHT22;18952;52.516;13.460;2023-04-06T02:33:25;4.00;99.90
32502;DHT22;18952;52.516;13.460;2023-04-06T02:35:53;4.00;99.90
32502;DHT22;18952;52.516;13.460;2023-04-06T02:38:20;4.00;99.90
32502;DHT22;18952;52.516;13.460;2023-04-06T02:40:49;3.90;99.90
32502;DHT22;18952;52.516;13.460;2023-04-06T02:43:17;3.90;99.90
32502;DHT22;18952;52.516;13.460;2023-04-06T02:45:49;3.90;99.90
32502;DHT22;18952;52.516;13.460;2023-04-06T02:48:15;3.80;99.90
32502;DHT22;18952;52.516;13.460;2023-04-06T02:50:42;3.80;99.90
32502;DHT22;18952;52.516;13.460;2023-04-06T02:53:09;3.80;99.90
32502;DHT22;18952;52.516;13.460;2023-04-06T02:55:36;3.70;99.90
32502;DHT22;18952;52.516;13.460;2023-04-06T02:58:03;3.70;99.90
32502;DHT22;18952;52.516;13.460;2023-04-06T03:00:30;3.70;99.90
32502;DHT22;18952;52.516;13.460;2023-04-06T03:02:56;3.60;99.90
32502;DHT22;18952;52.516;13.460;2023-04-06T03:05:23;3.60;99.90
32502;DHT22;18952;52.516;13.460;2023-04-06T03:07:50;3.50;99.90
32502;DHT22;18952;52.516;13.460;2023-04-06T03:10:17;3.40;99.90
32502;DHT22;18952;52.516;13.460;2023-04-06T03:12:44;3.40;99.90
32502;DHT22;18952;52.516;13.460;2023-04-06T03:15:14;3.30;99.90
32502;DHT22;18952;52.516;13.460;2023-04-06T03:17:42;3.30;99.90
32502;DHT22;18952;52.516;13.460;2023-04-06T03:20:12;3.30;99.90
32502;DHT22;18952;52.516;13.460;2023-04-06T03:22:39;3.20;99.90
32502;DHT22;18952;52.516;13.460;2023-04-06T03:25:06;3.20;99.90
32502;DHT22;18952;52.516;13.460;2023-04-06T03:27:33;3.20;99.90
32502;DHT22;18952;52.516;13.460;2023-04-06T03:30:00;3.20;99.90
32502;DHT22;18952;52.516;13.460;2023-04-06T03:32:27;3.10;99.90
32502;DHT22;18952;52.516;13.460;2023-04-06T03:34:54;3.10;99.90
32502;DHT22;18952;52.516;13.460;2023-04-06T03:37:21;3.10;99.90
32502;DHT22;18952;52.516;13.460;2023-04-06T03:39:47;3.10;99.90
32502;DHT22;18952;52.516;13.460;2023-04-06T03:42:14;3.00;99.90
32502;DHT22;18952;52.516;13.460;2023-04-06T03:44:42;3.00;99.90
32502;DHT22;18952;52.516;13.460;2023-04-06T03:47:09;3.00;99.90
32502;DHT22;18952;52.516;13.460;2023-04-06T03:49:37;3.00;99.90
32502;DHT22;18952;52.516;13.460;2023-04-06T03:52:06;2.90;99.90
32502;DHT22;18952;52.516;13.460;2023-04-06T03:54:32;2.90;99.90
32502;DHT22;18952;52.516;13.460;2023-04-06T03:57:02;2.90;99.90
32502;DHT22;18952;52.516;13.460;2023-04-06T03:59:28;2.90;99.90
32502;DHT22;18952;52.516;13.460;2023-04-06T04:01:58;2.90;99.90
32502;DHT22;18952;52.516;13.460;2023-04-06T04:04:29;2.80;99.90
32502;DHT22;18952;52.516;13.460;2023-04-06T04:06:57;2.80;99.90
32502;DHT22;18952;52.516;13.460;2023-04-06T04:09:25;2.80;99.90
32502;DHT22;18952;52.516;13.460;2023-04-06T04:11:56;2.80;99.90
32502;DHT22;18952;52.516;13.460;2023-04-06T04:14:24;2.80;99.90
32502;DHT22;18952;52.516;13.460;2023-04-06T04:16:52;2.70;99.90
32502;DHT22;18952;52.516;13.460;2023-04-06T04:19:20;2.70;99.90
32502;DHT22;18952;52.516;13.460;2023-04-06T04:21:48;2.70;99.90
32502;DHT22;18952;52.516;13.460;2023-04-06T04:24:15;2.60;99.90
32502;DHT22;18952;52.516;13.460;2023-04-06T04:26:42;2.60;99.90
32502;DHT22;18952;52.516;13.460;2023-04-06T04:29:12;2.60;99.90
32502;DHT22;18952;52.516;13.460;2023-04-06T04:31:41;2.60;99.90
32502;DHT22;18952;52.516;13.460;2023-04-06T04:34:09;2.50;99.90
32502;DHT22;18952;52.516;13.460;2023-04-06T04:36:40;2.50;99.90
32502;DHT22;18952;52.516;13.460;2023-04-06T04:39:09;2.50;99.90
32502;DHT22;18952;52.516;13.460;2023-04-06T04:41:38;2.50;99.90
32502;DHT22;18952;52.516;13.460;2023-04-06T04:44:06;2.50;99.90
32502;DHT22;18952;52.516;13.460;2023-04-06T04:46:32;2.40;99.90
32502;DHT22;18952;52.516;13.460;2023-04-06T04:48:59;2.40;99.90
32502;DHT22;18952;52.516;13.460;2023-04-06T04:51:26;2.40;99.90
32502;DHT22;18952;52.516;13.460;2023-04-06T04:53:54;2.40;99.90
32502;DHT22;18952;52.516;13.460;2023-04-06T04:56:21;2.40;99.90
32502;DHT22;18952;52.516;13.460;2023-04-06T04:58:49;2.40;99.90
32502;DHT22;18952;52.516;13.460;2023-04-06T05:01:17;2.40;99.90
32502;DHT22;18952;52.516;13.460;2023-04-06T05:03:46;2.40;99.90
32502;DHT22;18952;52.516;13.460;2023-04-06T05:06:13;2.40;99.90
32502;DHT22;18952;52.516;13.460;2023-04-06T05:08:45;2.40;99.90
32502;DHT22;18952;52.516;13.460;2023-04-06T05:11:12;2.40;99.90
32502;DHT22;18952;52.516;13.460;2023-04-06T05:13:44;2.40;99.90
32502;DHT22;18952;52.516;13.460;2023-04-06T05:16:16;2.40;99.90
32502;DHT22;18952;52.516;13.460;2023-04-06T05:18:53;2.40;99.90
32502;DHT22;18952;52.516;13.460;2023-04-06T05:21:20;2.40;99.90
32502;DHT22;18952;52.516;13.460;2023-04-06T05:23:54;2.40;99.90
32502;DHT22;18952;52.516;13.460;2023-04-06T05:26:21;2.40;99.90
32502;DHT22;18952;52.516;13.460;2023-04-06T05:28:47;2.40;99.90
32502;DHT22;18952;52.516;13.460;2023-04-06T05:31:14;2.40;99.90
32502;DHT22;18952;52.516;13.460;2023-04-06T05:33:41;2.40;99.90
32502;DHT22;18952;52.516;13.460;2023-04-06T05:36:08;2.40;99.90
32502;DHT22;18952;52.516;13.460;2023-04-06T05:38:35;2.50;99.90
32502;DHT22;18952;52.516;13.460;2023-04-06T05:41:02;2.40;99.90
32502;DHT22;18952;52.516;13.460;2023-04-06T05:43:29;2.50;99.90
32502;DHT22;18952;52.516;13.460;2023-04-06T05:45:55;2.50;99.90
32502;DHT22;18952;52.516;13.460;2023-04-06T05:48:22;2.50;99.90
32502;DHT22;18952;52.516;13.460;2023-04-06T05:50:50;2.50;99.90
32502;DHT22;18952;52.516;13.460;2023-04-06T05:53:17;2.50;99.90
32502;DHT22;18952;52.516;13.460;2023-04-06T05:55:43;2.60;99.90
32502;DHT22;18952;52.516;13.460;2023-04-06T05:58:11;2.60;99.90
32502;DHT22;18952;52.516;13.460;2023-04-06T06:00:38;2.60;99.90
32502;DHT22;18952;52.516;13.460;2023-04-06T06:03:06;2.60;99.90
32502;DHT22;18952;52.516;13.460;2023-04-06T06:05:34;2.70;99.90
32502;DHT22;18952;52.516;13.460;2023-04-06T06:08:02;2.70;99.90
32502;DHT22;18952;52.516;13.460;2023-04-06T06:10:29;2.70;99.90
32502;DHT22;18952;52.516;13.460;2023-04-06T06:12:56;2.70;99.90
32502;DHT22;18952;52.516;13.460;2023-04-06T06:15:23;2.70;99.90
32502;DHT22;18952;52.516;13.460;2023-04-06T06:17:50;2.70;99.90
32502;DHT22;18952;52.516;13.460;2023-04-06T06:20:17;2.80;99.90
32502;DHT22;18952;52.516;13.460;2023-04-06T06:22:43;2.80;99.90
32502;DHT22;18952;52.516;13.460;2023-04-06T06:25:10;2.80;99.90
32502;DHT22;18952;52.516;13.460;2023-04-06T06:28:05;2.80;99.90
32502;DHT22;18952;52.516;13.460;2023-04-06T06:30:35;2.80;99.90
32502;DHT22;18952;52.516;13.460;2023-04-06T06:33:02;2.90;99.90
32502;DHT22;18952;52.516;13.460;2023-04-06T06:35:29;2.80;99.90
32502;DHT22;18952;52.516;13.460;2023-04-06T06:37:56;2.90;99.90
32502;DHT22;18952;52.516;13.460;2023-04-06T06:40:23;2.90;99.90
32502;DHT22;18952;52.516;13.460;2023-04-06T06:42:50;3.00;99.90
32502;DHT22;18952;52.516;13.460;2023-04-06T06:45:17;3.00;99.90
32502;DHT22;18952;52.516;13.460;2023-04-06T06:47:44;3.00;99.90
32502;DHT22;18952;52.516;13.460;2023-04-06T06:50:11;3.10;99.90
32502;DHT22;18952;52.516;13.460;2023-04-06T06:52:38;3.10;99.90
32502;DHT22;18952;52.516;13.460;2023-04-06T06:55:06;3.20;99.90
32502;DHT22;18952;52.516;13.460;2023-04-06T06:57:32;3.20;99.90
32502;DHT22;18952;52.516;13.460;2023-04-06T06:59:59;3.30;99.90
32502;DHT22;18952;52.516;13.460;2023-04-06T07:02:28;3.30;99.90
32502;DHT22;18952;52.516;13.460;2023-04-06T07:04:55;3.30;99.90
32502;DHT22;18952;52.516;13.460;2023-04-06T07:07:22;3.40;99.90
32502;DHT22;18952;52.516;13.460;2023-04-06T07:09:49;3.40;99.90
32502;DHT22;18952;52.516;13.460;2023-04-06T07:12:16;3.50;99.90
32502;DHT22;18952;52.516;13.460;2023-04-06T07:14:43;3.60;99.90
32502;DHT22;18952;52.516;13.460;2023-04-06T07:17:10;3.70;99.90
32502;DHT22;18952;52.516;13.460;2023-04-06T07:19:37;3.70;99.90
32502;DHT22;18952;52.516;13.460;2023-04-06T07:22:04;3.80;99.90
32502;DHT22;18952;52.516;13.460;2023-04-06T07:24:30;3.90;99.90
32502;DHT22;18952;52.516;13.460;2023-04-06T07:26:59;3.90;99.90
32502;DHT22;18952;52.516;13.460;2023-04-06T07:29:26;4.00;99.90
32502;DHT22;18952;52.516;13.460;2023-04-06T07:31:54;4.00;99.90
32502;DHT22;18952;52.516;13.460;2023-04-06T07:34:21;4.10;99.90
32502;DHT22;18952;52.516;13.460;2023-04-06T07:36:48;4.10;99.90
32502;DHT22;18952;52.516;13.460;2023-04-06T07:39:16;4.20;99.90
32502;DHT22;18952;52.516;13.460;2023-04-06T07:41:43;4.20;99.90
32502;DHT22;18952;52.516;13.460;2023-04-06T07:44:10;4.30;99.90
32502;DHT22;18952;52.516;13.460;2023-04-06T07:46:37;4.40;99.90
32502;DHT22;18952;52.516;13.460;2023-04-06T07:49:11;4.40;99.90
32502;DHT22;18952;52.516;13.460;2023-04-06T07:51:41;4.40;99.90
32502;DHT22;18952;52.516;13.460;2023-04-06T07:54:08;4.50;99.90
32502;DHT22;18952;52.516;13.460;2023-04-06T07:56:38;4.50;99.90
32502;DHT22;18952;52.516;13.460;2023-04-06T07:59:11;4.60;99.90
32502;DHT22;18952;52.516;13.460;2023-04-06T08:01:38;4.60;99.90
32502;DHT22;18952;52.516;13.460;2023-04-06T08:04:06;4.70;99.90
32502;DHT22;18952;52.516;13.460;2023-04-06T08:06:34;4.70;99.90
32502;DHT22;18952;52.516;13.460;2023-04-06T08:09:02;4.80;99.90
32502;DHT22;18952;52.516;13.460;2023-04-06T08:11:31;4.90;99.90
32502;DHT22;18952;52.516;13.460;2023-04-06T08:13:58;4.90;99.90
32502;DHT22;18952;52.516;13.460;2023-04-06T08:16:25;5.00;99.90
32502;DHT22;18952;52.516;13.460;2023-04-06T08:18:54;5.00;99.90
32502;DHT22;18952;52.516;13.460;2023-04-06T08:21:22;5.10;99.90
32502;DHT22;18952;52.516;13.460;2023-04-06T08:23:49;5.10;99.90
32502;DHT22;18952;52.516;13.460;2023-04-06T08:26:19;5.20;99.90
32502;DHT22;18952;52.516;13.460;2023-04-06T08:28:46;5.30;99.90
32502;DHT22;18952;52.516;13.460;2023-04-06T08:31:13;5.30;99.90
32502;DHT22;18952;52.516;13.460;2023-04-06T08:33:41;5.40;99.90
32502;DHT22;18952;52.516;13.460;2023-04-06T08:36:17;5.40;99.90
32502;DHT22;18952;52.516;13.460;2023-04-06T08:38:44;5.50;99.90
32502;DHT22;18952;52.516;13.460;2023-04-06T08:41:12;5.60;99.90
32502;DHT22;18952;52.516;13.460;2023-04-06T08:43:49;5.60;99.90
32502;DHT22;18952;52.516;13.460;2023-04-06T08:46:21;5.70;99.90
32502;DHT22;18952;52.516;13.460;2023-04-06T08:48:49;5.80;99.90
32502;DHT22;18952;52.516;13.460;2023-04-06T08:51:15;5.80;99.90
32502;DHT22;18952;52.516;13.460;2023-04-06T08:53:43;5.90;99.90
32502;DHT22;18952;52.516;13.460;2023-04-06T08:56:10;5.90;99.90
32502;DHT22;18952;52.516;13.460;2023-04-06T08:58:39;6.00;99.90
32502;DHT22;18952;52.516;13.460;2023-04-06T09:01:08;6.00;99.90
32502;DHT22;18952;52.516;13.460;2023-04-06T09:03:51;6.10;99.90
32502;DHT22;18952;52.516;13.460;2023-04-06T09:06:24;6.20;98.40
32502;DHT22;18952;52.516;13.460;2023-04-06T09:08:51;6.20;98.10
32502;DHT22;18952;52.516;13.460;2023-04-06T09:11:20;6.20;97.90
32502;DHT22;18952;52.516;13.460;2023-04-06T09:13:48;6.30;97.60
32502;DHT22;18952;52.516;13.460;2023-04-06T09:16:25;6.30;97.40
32502;DHT22;18952;52.516;13.460;2023-04-06T09:18:52;6.30;97.10
32502;DHT22;18952;52.516;13.460;2023-04-06T09:21:22;6.30;97.20
32502;DHT22;18952;52.516;13.460;2023-04-06T09:23:59;6.40;96.70
32502;DHT22;18952;52.516;13.460;2023-04-06T09:26:28;6.40;96.30
32502;DHT22;18952;52.516;13.460;2023-04-06T09:29:22;6.50;96.10
32502;DHT22;18952;52.516;13.460;2023-04-06T09:32:01;6.50;96.30
32502;DHT22;18952;52.516;13.460;2023-04-06T09:34:29;6.50;96.20
32502;DHT22;18952;52.516;13.460;2023-04-06T09:36:56;6.60;95.30
32502;DHT22;18952;52.516;13.460;2023-04-06T09:39:24;6.60;95.10
32502;DHT22;18952;52.516;13.460;2023-04-06T09:41:52;6.60;94.90
32502;DHT22;18952;52.516;13.460;2023-04-06T09:44:26;6.70;94.90
32502;DHT22;18952;52.516;13.460;2023-04-06T09:46:55;6.70;94.10
32502;DHT22;18952;52.516;13.460;2023-04-06T09:49:33;6.80;93.80
32502;DHT22;18952;52.516;13.460;2023-04-06T09:52:06;6.90;93.30
32502;DHT22;18952;52.516;13.460;2023-04-06T09:54:35;7.00;92.90
32502;DHT22;18952;52.516;13.460;2023-04-06T09:57:32;7.00;91.90
32502;DHT22;18952;52.516;13.460;2023-04-06T10:00:08;7.20;91.30
32502;DHT22;18952;52.516;13.460;2023-04-06T10:03:18;7.30;90.50
32502;DHT22;18952;52.516;13.460;2023-04-06T10:05:55;7.40;90.30
32502;DHT22;18952;52.516;13.460;2023-04-06T10:08:25;7.40;89.80
32502;DHT22;18952;52.516;13.460;2023-04-06T10:10:58;7.50;88.60
32502;DHT22;18952;52.516;13.460;2023-04-06T10:13:26;7.50;89.50
32502;DHT22;18952;52.516;13.460;2023-04-06T10:15:55;7.60;88.90
32502;DHT22;18952;52.516;13.460;2023-04-06T10:18:24;7.70;85.50
32502;DHT22;18952;52.516;13.460;2023-04-06T10:21:12;7.70;83.60
32502;DHT22;18952;52.516;13.460;2023-04-06T10:23:53;7.90;81.90
32502;DHT22;18952;52.516;13.460;2023-04-06T10:26:21;7.90;79.20
32502;DHT22;18952;52.516;13.460;2023-04-06T10:28:49;8.00;80.10
32502;DHT22;18952;52.516;13.460;2023-04-06T10:31:27;8.00;79.90
32502;DHT22;18952;52.516;13.460;2023-04-06T10:34:01;8.10;79.20
32502;DHT22;18952;52.516;13.460;2023-04-06T10:36:32;8.20;78.50
32502;DHT22;18952;52.516;13.460;2023-04-06T10:39:04;8.20;78.20
32502;DHT22;18952;52.516;13.460;2023-04-06T10:41:36;8.20;76.60
32502;DHT22;18952;52.516;13.460;2023-04-06T10:44:03;8.20;75.70
32502;DHT22;18952;52.516;13.460;2023-04-06T10:46:31;8.20;75.20
32502;DHT22;18952;52.516;13.460;2023-04-06T10:49:09;8.20;72.80
32502;DHT22;18952;52.516;13.460;2023-04-06T10:51:38;8.30;71.50
32502;DHT22;18952;52.516;13.460;2023-04-06T10:54:06;8.30;72.40
32502;DHT22;18952;52.516;13.460;2023-04-06T10:56:39;8.50;71.80
32502;DHT22;18952;52.516;13.460;2023-04-06T10:59:09;8.60;69.20
32502;DHT22;18952;52.516;13.460;2023-04-06T11:01:36;8.70;68.70
32502;DHT22;18952;52.516;13.460;2023-04-06T11:04:03;8.80;69.30
32502;DHT22;18952;52.516;13.460;2023-04-06T11:06:31;8.80;70.20
32502;DHT22;18952;52.516;13.460;2023-04-06T11:08:58;8.90;71.80
32502;DHT22;18952;52.516;13.460;2023-04-06T11:11:26;8.90;70.60
32502;DHT22;18952;52.516;13.460;2023-04-06T11:13:55;8.90;70.90
32502;DHT22;18952;52.516;13.460;2023-04-06T11:16:33;8.80;71.30
32502;DHT22;18952;52.516;13.460;2023-04-06T11:19:04;8.80;71.20
32502;DHT22;18952;52.516;13.460;2023-04-06T11:21:45;8.80;70.50
32502;DHT22;18952;52.516;13.460;2023-04-06T11:24:23;8.70;68.20
32502;DHT22;18952;52.516;13.460;2023-04-06T11:26:57;8.60;67.10
32502;DHT22;18952;52.516;13.460;2023-04-06T11:29:29;8.50;67.10
32502;DHT22;18952;52.516;13.460;2023-04-06T11:32:04;8.50;67.70
32502;DHT22;18952;52.516;13.460;2023-04-06T11:34:37;8.60;67.60
32502;DHT22;18952;52.516;13.460;2023-04-06T11:37:22;8.80;66.20
32502;DHT22;18952;52.516;13.460;2023-04-06T11:39:55;8.90;65.60
32502;DHT22;18952;52.516;13.460;2023-04-06T11:42:26;8.90;63.80
32502;DHT22;18952;52.516;13.460;2023-04-06T11:44:58;9.00;63.50
32502;DHT22;18952;52.516;13.460;2023-04-06T11:47:34;9.10;65.30
32502;DHT22;18952;52.516;13.460;2023-04-06T11:50:14;9.30;63.90
32502;DHT22;18952;52.516;13.460;2023-04-06T11:52:42;9.50;62.30
32502;DHT22;18952;52.516;13.460;2023-04-06T11:57:40;9.60;64.00
32502;DHT22;18952;52.516;13.460;2023-04-06T12:00:09;9.60;63.80
32502;DHT22;18952;52.516;13.460;2023-04-06T12:02:37;9.80;64.50
32502;DHT22;18952;52.516;13.460;2023-04-06T12:05:05;9.80;64.70
32502;DHT22;18952;52.516;13.460;2023-04-06T12:07:33;9.90;65.00
32502;DHT22;18952;52.516;13.460;2023-04-06T12:10:02;10.00;64.90
32502;DHT22;18952;52.516;13.460;2023-04-06T12:12:30;10.00;65.20
32502;DHT22;18952;52.516;13.460;2023-04-06T12:14:58;10.10;64.10
32502;DHT22;18952;52.516;13.460;2023-04-06T12:17:26;10.30;64.40
32502;DHT22;18952;52.516;13.460;2023-04-06T12:19:55;10.60;64.20
32502;DHT22;18952;52.516;13.460;2023-04-06T12:22:31;11.00;63.40
32502;DHT22;18952;52.516;13.460;2023-04-06T12:24:58;11.40;62.20
32502;DHT22;18952;52.516;13.460;2023-04-06T12:27:26;11.70;61.90
32502;DHT22;18952;52.516;13.460;2023-04-06T12:29:56;12.10;60.80
32502;DHT22;18952;52.516;13.460;2023-04-06T12:32:24;12.30;58.50
32502;DHT22;18952;52.516;13.460;2023-04-06T12:34:56;12.50;58.00
32502;DHT22;18952;52.516;13.460;2023-04-06T12:37:23;12.80;57.70
32502;DHT22;18952;52.516;13.460;2023-04-06T12:39:54;13.00;56.40
32502;DHT22;18952;52.516;13.460;2023-04-06T12:42:21;13.10;56.90
32502;DHT22;18952;52.516;13.460;2023-04-06T12:44:49;13.20;56.90
32502;DHT22;18952;52.516;13.460;2023-04-06T12:47:20;13.50;56.60
32502;DHT22;18952;52.516;13.460;2023-04-06T12:49:47;13.70;55.80
32502;DHT22;18952;52.516;13.460;2023-04-06T12:52:14;13.90;56.10
32502;DHT22;18952;52.516;13.460;2023-04-06T12:54:41;14.00;55.00
32502;DHT22;18952;52.516;13.460;2023-04-06T12:57:08;14.30;54.80
32502;DHT22;18952;52.516;13.460;2023-04-06T12:59:35;14.30;54.50
32502;DHT22;18952;52.516;13.460;2023-04-06T13:02:03;14.10;53.10
32502;DHT22;18952;52.516;13.460;2023-04-06T13:04:30;14.10;53.60
32502;DHT22;18952;52.516;13.460;2023-04-06T13:06:58;14.40;53.90
32502;DHT22;18952;52.516;13.460;2023-04-06T13:09:33;14.70;54.00
32502;DHT22;18952;52.516;13.460;2023-04-06T13:12:03;15.00;53.00
32502;DHT22;18952;52.516;13.460;2023-04-06T13:14:32;15.30;52.30
32502;DHT22;18952;52.516;13.460;2023-04-06T13:16:59;15.40;51.80
32502;DHT22;18952;52.516;13.460;2023-04-06T13:19:26;15.60;51.60
32502;DHT22;18952;52.516;13.460;2023-04-06T13:21:54;15.80;51.10
32502;DHT22;18952;52.516;13.460;2023-04-06T13:24:22;15.90;51.20
32502;DHT22;18952;52.516;13.460;2023-04-06T13:26:49;16.10;50.60
32502;DHT22;18952;52.516;13.460;2023-04-06T13:29:16;16.20;50.10
32502;DHT22;18952;52.516;13.460;2023-04-06T13:31:44;16.20;48.80
32502;DHT22;18952;52.516;13.460;2023-04-06T13:34:11;16.20;49.80
32502;DHT22;18952;52.516;13.460;2023-04-06T13:36:39;16.30;49.30
32502;DHT22;18952;52.516;13.460;2023-04-06T13:39:08;16.50;49.10
32502;DHT22;18952;52.516;13.460;2023-04-06T13:41:39;16.60;48.30
32502;DHT22;18952;52.516;13.460;2023-04-06T13:44:07;16.30;48.90
32502;DHT22;18952;52.516;13.460;2023-04-06T13:46:34;16.30;49.10
32502;DHT22;18952;52.516;13.460;2023-04-06T13:49:02;16.60;48.50
32502;DHT22;18952;52.516;13.460;2023-04-06T13:51:31;16.80;48.00
32502;DHT22;18952;52.516;13.460;2023-04-06T13:53:58;17.00;48.30
32502;DHT22;18952;52.516;13.460;2023-04-06T13:56:25;17.10;46.60
32502;DHT22;18952;52.516;13.460;2023-04-06T13:58:54;16.80;47.50
32502;DHT22;18952;52.516;13.460;2023-04-06T14:01:21;16.50;47.90
32502;DHT22;18952;52.516;13.460;2023-04-06T14:03:48;16.40;47.60
32502;DHT22;18952;52.516;13.460;2023-04-06T14:06:16;16.30;47.20
32502;DHT22;18952;52.516;13.460;2023-04-06T14:08:45;16.20;47.70
32502;DHT22;18952;52.516;13.460;2023-04-06T14:11:16;16.20;47.70
32502;DHT22;18952;52.516;13.460;2023-04-06T14:13:43;16.30;47.60
32502;DHT22;18952;52.516;13.460;2023-04-06T14:16:11;16.30;47.00
32502;DHT22;18952;52.516;13.460;2023-04-06T14:18:38;16.00;47.00
32502;DHT22;18952;52.516;13.460;2023-04-06T14:21:04;16.00;47.50
32502;DHT22;18952;52.516;13.460;2023-04-06T14:23:31;16.20;47.80
32502;DHT22;18952;52.516;13.460;2023-04-06T14:26:05;16.40;47.40
32502;DHT22;18952;52.516;13.460;2023-04-06T14:28:33;16.40;46.30
32502;DHT22;18952;52.516;13.460;2023-04-06T14:31:01;15.80;46.80
32502;DHT22;18952;52.516;13.460;2023-04-06T14:33:31;15.40;47.20
32502;DHT22;18952;52.516;13.460;2023-04-06T14:35:58;15.40;47.50
32502;DHT22;18952;52.516;13.460;2023-04-06T14:38:25;15.60;46.70
32502;DHT22;18952;52.516;13.460;2023-04-06T14:40:52;15.90;46.90
32502;DHT22;18952;52.516;13.460;2023-04-06T14:43:19;16.10;46.60
32502;DHT22;18952;52.516;13.460;2023-04-06T14:45:46;16.30;45.90
32502;DHT22;18952;52.516;13.460;2023-04-06T14:48:13;16.50;45.60
32502;DHT22;18952;52.516;13.460;2023-04-06T14:50:41;16.60;45.70
32502;DHT22;18952;52.516;13.460;2023-04-06T14:53:08;16.80;45.20
32502;DHT22;18952;52.516;13.460;2023-04-06T14:55:39;16.90;45.10
32502;DHT22;18952;52.516;13.460;2023-04-06T14:58:07;16.90;45.20
32502;DHT22;18952;52.516;13.460;2023-04-06T15:00:38;16.90;44.80
32502;DHT22;18952;52.516;13.460;2023-04-06T15:03:06;16.90;45.30
32502;DHT22;18952;52.516;13.460;2023-04-06T15:05:37;16.90;45.60
32502;DHT22;18952;52.516;13.460;2023-04-06T15:08:14;17.00;45.00
32502;DHT22;18952;52.516;13.460;2023-04-06T15:10:43;17.20;44.70
32502;DHT22;18952;52.516;13.460;2023-04-06T15:13:11;17.30;44.80
32502;DHT22;18952;52.516;13.460;2023-04-06T15:15:43;17.30;44.60
32502;DHT22;18952;52.516;13.460;2023-04-06T15:18:11;17.30;44.10
32502;DHT22;18952;52.516;13.460;2023-04-06T15:20:40;17.20;44.30
32502;DHT22;18952;52.516;13.460;2023-04-06T15:23:07;17.10;44.30
32502;DHT22;18952;52.516;13.460;2023-04-06T15:25:35;17.10;44.80
32502;DHT22;18952;52.516;13.460;2023-04-06T15:28:02;17.10;44.60
32502;DHT22;18952;52.516;13.460;2023-04-06T15:30:31;17.10;44.60
32502;DHT22;18952;52.516;13.460;2023-04-06T15:33:08;16.90;44.60
32502;DHT22;18952;52.516;13.460;2023-04-06T15:35:35;16.70;44.30
32502;DHT22;18952;52.516;13.460;2023-04-06T15:38:03;16.50;45.10
32502;DHT22;18952;52.516;13.460;2023-04-06T15:40:31;16.50;44.70